sensor_id;sensor_type;location;lat;lon;timestamp;temperature;humidity
3186;DHT22;1604;53.700;10.252;2022-12-18T00:01:47;-4.70;99.90
3186;DHT22;1604;53.700;10.252;2022-12-18T00:04:51;-4.70;99.90
3186;DHT22;1604;53.700;10.252;2022-12-18T00:07:53;-4.70;99.90
3186;DHT22;1604;53.700;10.252;2022-12-18T00:11:03;-4.70;99.90
3186;DHT22;1604;53.700;10.252;2022-12-18T00:14:05;-4.70;99.90
3186;DHT22;1604;53.700;10.252;2022-12-18T00:17:07;-4.60;99.90
3186;DHT22;1604;53.700;10.252;2022-12-18T00:20:11;-4.60;99.90
3186;DHT22;1604;53.700;10.252;2022-12-18T00:23:13;-4.60;99.90
3186;DHT22;1604;53.700;10.252;2022-12-18T00:26:17;-4.60;99.90
3186;DHT22;1604;53.700;10.252;2022-12-18T00:29:19;-4.60;99.90
3186;DHT22;1604;53.700;10.252;2022-12-18T00:32:21;-4.60;99.90
3186;DHT22;1604;53.700;10.252;2022-12-18T00:35:24;-4.70;99.90
3186;DHT22;1604;53.700;10.252;2022-12-18T00:38:26;-4.80;99.90
3186;DHT22;1604;53.700;10.252;2022-12-18T00:41:28;-4.80;99.90
3186;DHT22;1604;53.700;10.252;2022-12-18T00:44:48;-4.80;99.90
3186;DHT22;1604;53.700;10.252;2022-12-18T00:47:50;-4.80;99.90
3186;DHT22;1604;53.700;10.252;2022-12-18T00:50:54;-4.80;99.90
3186;DHT22;1604;53.700;10.252;2022-12-18T00:53:56;-4.80;99.90
3186;DHT22;1604;53.700;10.252;2022-12-18T00:56:58;-4.80;99.90
3186;DHT22;1604;53.700;10.252;2022-12-18T01:00:04;-4.80;99.90
3186;DHT22;1604;53.700;10.252;2022-12-18T01:03:06;-4.90;99.90
3186;DHT22;1604;53.700;10.252;2022-12-18T01:06:11;-4.90;99.90
3186;DHT22;1604;53.700;10.252;2022-12-18T01:09:13;-5.00;99.90
3186;DHT22;1604;53.700;10.252;2022-12-18T01:12:18;-5.10;99.90
3186;DHT22;1604;53.700;10.252;2022-12-18T01:15:22;-5.20;99.90
3186;DHT22;1604;53.700;10.252;2022-12-18T01:18:24;-5.20;99.90
3186;DHT22;1604;53.700;10.252;2022-12-18T01:21:27;-5.20;99.90
3186;DHT22;1604;53.700;10.252;2022-12-18T01:24:29;-5.20;99.90
3186;DHT22;1604;53.700;10.252;2022-12-18T01:27:33;-5.20;99.90
3186;DHT22;1604;53.700;10.252;2022-12-18T01:30:35;-5.30;99.90
3186;DHT22;1604;53.700;10.252;2022-12-18T01:33:36;-5.30;99.90
3186;DHT22;1604;53.700;10.252;2022-12-18T01:36:40;-5.30;99.90
3186;DHT22;1604;53.700;10.252;2022-12-18T01:39:45;-5.40;99.90
3186;DHT22;1604;53.700;10.252;2022-12-18T01:42:50;-5.40;99.90
3186;DHT22;1604;53.700;10.252;2022-12-18T01:45:52;-5.50;99.90
3186;DHT22;1604;53.700;10.252;2022-12-18T01:48:56;-5.50;99.90
3186;DHT22;1604;53.700;10.252;2022-12-18T01:52:00;-5.50;99.90
3186;DHT22;1604;53.700;10.252;2022-12-18T01:55:03;-5.40;99.90
3186;DHT22;1604;53.700;10.252;2022-12-18T01:58:06;-5.40;99.90
3186;DHT22;1604;53.700;10.252;2022-12-18T02:01:08;-5.40;99.90
3186;DHT22;1604;53.700;10.252;2022-12-18T02:04:21;-5.30;99.90
3186;DHT22;1604;53.700;10.252;2022-12-18T02:07:29;-5.40;99.90
3186;DHT22;1604;53.700;10.252;2022-12-18T02:10:37;-5.40;99.90
3186;DHT22;1604;53.700;10.252;2022-12-18T02:13:46;-5.40;99.90
3186;DHT22;1604;53.700;10.252;2022-12-18T02:16:57;-5.40;99.90
3186;DHT22;1604;53.700;10.252;2022-12-18T02:20:07;-5.40;99.90
3186;DHT22;1604;53.700;10.252;2022-12-18T02:23:29;-5.40;99.90
3186;DHT22;1604;53.700;10.252;2022-12-18T02:26:41;-5.50;99.90
3186;DHT22;1604;53.700;10.252;2022-12-18T02:29:48;-5.50;99.90
3186;DHT22;1604;53.700;10.252;2022-12-18T02:32:53;-5.60;99.90
3186;DHT22;1604;53.700;10.252;2022-12-18T02:35:57;-5.60;99.90
3186;DHT22;1604;53.700;10.252;2022-12-18T02:39:01;-5.50;99.90
3186;DHT22;1604;53.700;10.252;2022-12-18T02:42:04;-5.50;99.90
3186;DHT22;1604;53.700;10.252;2022-12-18T02:45:09;-5.50;99.90
3186;DHT22;1604;53.700;10.252;2022-12-18T02:48:11;-5.60;99.90
3186;DHT22;1604;53.700;10.252;2022-12-18T02:51:20;-5.60;99.90
3186;DHT22;1604;53.700;10.252;2022-12-18T02:54:39;-5.60;99.90
3186;DHT22;1604;53.700;10.252;2022-12-18T02:57:48;-5.70;99.90
3186;DHT22;1604;53.700;10.252;2022-12-18T03:00:56;-5.70;99.90
3186;DHT22;1604;53.700;10.252;2022-12-18T03:04:03;-5.70;99.90
3186;DHT22;1604;53.700;10.252;2022-12-18T03:07:09;-5.60;99.90
3186;DHT22;1604;53.700;10.252;2022-12-18T03:10:16;-5.70;99.90
3186;DHT22;1604;53.700;10.252;2022-12-18T03:13:27;-5.70;99.90
3186;DHT22;1604;53.700;10.252;2022-12-18T03:16:31;-5.70;99.90
3186;DHT22;1604;53.700;10.252;2022-12-18T03:19:35;-5.80;99.90
3186;DHT22;1604;53.700;10.252;2022-12-18T03:22:41;-5.90;99.90
3186;DHT22;1604;53.700;10.252;2022-12-18T03:25:45;-6.00;99.90
3186;DHT22;1604;53.700;10.252;2022-12-18T03:28:52;-6.00;99.90
3186;DHT22;1604;53.700;10.252;2022-12-18T03:31:58;-6.10;99.90
3186;DHT22;1604;53.700;10.252;2022-12-18T03:35:05;-6.10;99.90
3186;DHT22;1604;53.700;10.252;2022-12-18T03:38:09;-6.10;99.90
3186;DHT22;1604;53.700;10.252;2022-12-18T03:41:16;-6.10;99.90
3186;DHT22;1604;53.700;10.252;2022-12-18T03:44:28;-6.10;99.90
3186;DHT22;1604;53.700;10.252;2022-12-18T03:47:35;-6.10;99.90
3186;DHT22;1604;53.700;10.252;2022-12-18T03:50:46;-6.20;99.90
3186;DHT22;1604;53.700;10.252;2022-12-18T03:53:53;-6.20;99.90
3186;DHT22;1604;53.700;10.252;2022-12-18T03:57:01;-6.20;99.90
3186;DHT22;1604;53.700;10.252;2022-12-18T04:00:10;-6.20;99.90
3186;DHT22;1604;53.700;10.252;2022-12-18T04:03:14;-6.20;99.90
3186;DHT22;1604;53.700;10.252;2022-12-18T04:06:20;-6.20;99.90
3186;DHT22;1604;53.700;10.252;2022-12-18T04:09:23;-6.20;99.90
3186;DHT22;1604;53.700;10.252;2022-12-18T04:12:25;-6.30;99.90
3186;DHT22;1604;53.700;10.252;2022-12-18T04:15:34;-6.30;99.90
3186;DHT22;1604;53.700;10.252;2022-12-18T04:18:39;-6.30;99.90
3186;DHT22;1604;53.700;10.252;2022-12-18T04:21:41;-6.30;99.90
3186;DHT22;1604;53.700;10.252;2022-12-18T04:24:43;-6.30;99.90
3186;DHT22;1604;53.700;10.252;2022-12-18T04:27:44;-6.30;99.90
3186;DHT22;1604;53.700;10.252;2022-12-18T04:30:49;-6.40;99.90
3186;DHT22;1604;53.700;10.252;2022-12-18T04:33:51;-6.40;99.90
3186;DHT22;1604;53.700;10.252;2022-12-18T04:36:53;-6.40;99.90
3186;DHT22;1604;53.700;10.252;2022-12-18T04:39:57;-6.40;99.90
3186;DHT22;1604;53.700;10.252;2022-12-18T04:42:59;-6.40;99.90
3186;DHT22;1604;53.700;10.252;2022-12-18T04:46:06;-6.40;99.90
3186;DHT22;1604;53.700;10.252;2022-12-18T04:49:09;-6.40;99.90
3186;DHT22;1604;53.700;10.252;2022-12-18T04:52:11;-6.40;99.90
3186;DHT22;1604;53.700;10.252;2022-12-18T04:55:13;-6.50;99.90
3186;DHT22;1604;53.700;10.252;2022-12-18T04:58:15;-6.50;99.90
3186;DHT22;1604;53.700;10.252;2022-12-18T05:01:18;-6.50;99.90
3186;DHT22;1604;53.700;10.252;2022-12-18T05:04:20;-6.50;99.90
3186;DHT22;1604;53.700;10.252;2022-12-18T05:07:22;-6.50;99.90
3186;DHT22;1604;53.700;10.252;2022-12-18T05:10:24;-6.50;99.90
3186;DHT22;1604;53.700;10.252;2022-12-18T05:13:26;-6.50;99.90
3186;DHT22;1604;53.700;10.252;2022-12-18T05:16:29;-6.50;99.90
3186;DHT22;1604;53.700;10.252;2022-12-18T05:19:32;-6.50;99.90
3186;DHT22;1604;53.700;10.252;2022-12-18T05:22:33;-6.50;99.90
3186;DHT22;1604;53.700;10.252;2022-12-18T05:25:35;-6.50;99.90
3186;DHT22;1604;53.700;10.252;2022-12-18T05:28:37;-6.50;99.90
3186;DHT22;1604;53.700;10.252;2022-12-18T05:31:41;-6.50;99.90
3186;DHT22;1604;53.700;10.252;2022-12-18T05:34:43;-6.50;99.90
3186;DHT22;1604;53.700;10.252;2022-12-18T05:37:45;-6.40;99.90
3186;DHT22;1604;53.700;10.252;2022-12-18T05:40:47;-6.40;99.90
3186;DHT22;1604;53.700;10.252;2022-12-18T05:43:49;-6.30;99.90
3186;DHT22;1604;53.700;10.252;2022-12-18T05:46:52;-6.40;99.90
3186;DHT22;1604;53.700;10.252;2022-12-18T05:49:54;-6.40;99.90
3186;DHT22;1604;53.700;10.252;2022-12-18T05:52:56;-6.40;99.90
3186;DHT22;1604;53.700;10.252;2022-12-18T05:56:00;-6.40;99.90
3186;DHT22;1604;53.700;10.252;2022-12-18T05:59:03;-6.40;99.90
3186;DHT22;1604;53.700;10.252;2022-12-18T06:02:06;-6.40;99.90
3186;DHT22;1604;53.700;10.252;2022-12-18T06:05:08;-6.40;99.90
3186;DHT22;1604;53.700;10.252;2022-12-18T06:08:12;-6.50;99.90
3186;DHT22;1604;53.700;10.252;2022-12-18T06:11:17;-6.50;99.90
3186;DHT22;1604;53.700;10.252;2022-12-18T06:14:19;-6.50;99.90
3186;DHT22;1604;53.700;10.252;2022-12-18T06:17:22;-6.50;99.90
3186;DHT22;1604;53.700;10.252;2022-12-18T06:20:24;-6.50;99.90
3186;DHT22;1604;53.700;10.252;2022-12-18T06:23:26;-6.50;99.90
3186;DHT22;1604;53.700;10.252;2022-12-18T06:26:28;-6.40;99.90
3186;DHT22;1604;53.700;10.252;2022-12-18T06:29:30;-6.40;99.90
3186;DHT22;1604;53.700;10.252;2022-12-18T06:32:33;-6.40;99.90
3186;DHT22;1604;53.700;10.252;2022-12-18T06:35:35;-6.40;99.90
3186;DHT22;1604;53.700;10.252;2022-12-18T06:38:39;-6.30;99.90
3186;DHT22;1604;53.700;10.252;2022-12-18T06:41:41;-6.40;99.90
3186;DHT22;1604;53.700;10.252;2022-12-18T06:44:42;-6.40;99.90
3186;DHT22;1604;53.700;10.252;2022-12-18T06:47:46;-6.50;99.90
3186;DHT22;1604;53.700;10.252;2022-12-18T06:50:48;-6.50;99.90
3186;DHT22;1604;53.700;10.252;2022-12-18T06:53:49;-6.60;99.90
3186;DHT22;1604;53.700;10.252;2022-12-18T06:56:51;-6.60;99.90
3186;DHT22;1604;53.700;10.252;2022-12-18T06:59:56;-6.60;99.90
3186;DHT22;1604;53.700;10.252;2022-12-18T07:03:00;-6.70;99.90
3186;DHT22;1604;53.700;10.252;2022-12-18T07:06:03;-6.70;99.90
3186;DHT22;1604;53.700;10.252;2022-12-18T07:09:08;-6.80;99.90
3186;DHT22;1604;53.700;10.252;2022-12-18T07:12:10;-6.80;99.90
3186;DHT22;1604;53.700;10.252;2022-12-18T07:15:16;-6.80;99.90
3186;DHT22;1604;53.700;10.252;2022-12-18T07:18:19;-6.80;99.90
3186;DHT22;1604;53.700;10.252;2022-12-18T07:21:22;-6.90;99.90
3186;DHT22;1604;53.700;10.252;2022-12-18T07:24:24;-6.70;99.90
3186;DHT22;1604;53.700;10.252;2022-12-18T07:27:26;-6.70;99.90
3186;DHT22;1604;53.700;10.252;2022-12-18T07:30:28;-6.80;99.90
3186;DHT22;1604;53.700;10.252;2022-12-18T07:33:34;-6.80;99.90
3186;DHT22;1604;53.700;10.252;2022-12-18T07:36:36;-6.80;99.90
3186;DHT22;1604;53.700;10.252;2022-12-18T07:39:37;-6.70;99.90
3186;DHT22;1604;53.700;10.252;2022-12-18T07:42:39;-6.70;99.90
3186;DHT22;1604;53.700;10.252;2022-12-18T07:45:44;-6.70;99.90
3186;DHT22;1604;53.700;10.252;2022-12-18T07:48:48;-6.80;99.90
3186;DHT22;1604;53.700;10.252;2022-12-18T07:51:49;-6.80;99.90
3186;DHT22;1604;53.700;10.252;2022-12-18T07:54:51;-6.90;99.90
3186;DHT22;1604;53.700;10.252;2022-12-18T07:57:53;-6.90;99.90
3186;DHT22;1604;53.700;10.252;2022-12-18T08:01:02;-6.80;99.90
3186;DHT22;1604;53.700;10.252;2022-12-18T08:04:06;-6.80;99.90
3186;DHT22;1604;53.700;10.252;2022-12-18T08:07:08;-6.80;99.90
3186;DHT22;1604;53.700;10.252;2022-12-18T08:10:10;-6.70;99.90
3186;DHT22;1604;53.700;10.252;2022-12-18T08:13:11;-6.70;99.90
3186;DHT22;1604;53.700;10.252;2022-12-18T08:16:16;-6.70;99.90
3186;DHT22;1604;53.700;10.252;2022-12-18T08:19:22;-6.60;99.90
3186;DHT22;1604;53.700;10.252;2022-12-18T08:22:24;-6.60;99.90
3186;DHT22;1604;53.700;10.252;2022-12-18T08:25:27;-6.60;99.90
3186;DHT22;1604;53.700;10.252;2022-12-18T08:28:31;-6.60;99.90
3186;DHT22;1604;53.700;10.252;2022-12-18T08:31:33;-6.50;99.90
3186;DHT22;1604;53.700;10.252;2022-12-18T08:34:37;-6.50;99.90
3186;DHT22;1604;53.700;10.252;2022-12-18T08:37:38;-6.40;99.90
3186;DHT22;1604;53.700;10.252;2022-12-18T08:40:40;-6.40;99.90
3186;DHT22;1604;53.700;10.252;2022-12-18T08:43:43;-6.40;99.90
3186;DHT22;1604;53.700;10.252;2022-12-18T08:47:02;-6.40;99.90
3186;DHT22;1604;53.700;10.252;2022-12-18T08:50:06;-6.30;99.90
3186;DHT22;1604;53.700;10.252;2022-12-18T08:53:08;-6.20;99.90
3186;DHT22;1604;53.700;10.252;2022-12-18T08:56:10;-6.20;99.90
3186;DHT22;1604;53.700;10.252;2022-12-18T08:59:12;-6.20;99.90
3186;DHT22;1604;53.700;10.252;2022-12-18T09:02:16;-6.20;99.90
3186;DHT22;1604;53.700;10.252;2022-12-18T09:05:19;-6.10;99.90
3186;DHT22;1604;53.700;10.252;2022-12-18T09:08:21;-6.00;99.90
3186;DHT22;1604;53.700;10.252;2022-12-18T09:11:25;-5.90;99.90
3186;DHT22;1604;53.700;10.252;2022-12-18T09:14:27;-5.80;99.90
3186;DHT22;1604;53.700;10.252;2022-12-18T09:17:31;-5.80;99.90
3186;DHT22;1604;53.700;10.252;2022-12-18T09:20:34;-5.70;99.90
3186;DHT22;1604;53.700;10.252;2022-12-18T09:23:36;-5.70;99.90
3186;DHT22;1604;53.700;10.252;2022-12-18T09:26:38;-5.70;99.90
3186;DHT22;1604;53.700;10.252;2022-12-18T09:29:40;-5.60;99.90
3186;DHT22;1604;53.700;10.252;2022-12-18T09:32:44;-5.60;99.90
3186;DHT22;1604;53.700;10.252;2022-12-18T09:35:47;-5.60;99.90
3186;DHT22;1604;53.700;10.252;2022-12-18T09:38:49;-5.50;99.90
3186;DHT22;1604;53.700;10.252;2022-12-18T09:41:57;-5.30;99.90
3186;DHT22;1604;53.700;10.252;2022-12-18T09:45:00;-5.30;99.90
3186;DHT22;1604;53.700;10.252;2022-12-18T09:48:04;-5.30;99.90
3186;DHT22;1604;53.700;10.252;2022-12-18T09:51:14;-5.30;99.90
3186;DHT22;1604;53.700;10.252;2022-12-18T09:54:20;-5.20;99.90
3186;DHT22;1604;53.700;10.252;2022-12-18T09:57:24;-5.10;99.90
3186;DHT22;1604;53.700;10.252;2022-12-18T10:00:26;-5.10;99.90
3186;DHT22;1604;53.700;10.252;2022-12-18T10:03:28;-4.90;99.90
3186;DHT22;1604;53.700;10.252;2022-12-18T10:06:37;-5.00;99.90
3186;DHT22;1604;53.700;10.252;2022-12-18T10:09:46;-4.90;99.90
3186;DHT22;1604;53.700;10.252;2022-12-18T10:12:58;-4.80;99.90
3186;DHT22;1604;53.700;10.252;2022-12-18T10:16:11;-4.70;99.90
3186;DHT22;1604;53.700;10.252;2022-12-18T10:19:24;-4.60;99.90
3186;DHT22;1604;53.700;10.252;2022-12-18T10:22:39;-4.50;99.90
3186;DHT22;1604;53.700;10.252;2022-12-18T10:25:51;-4.50;99.90
3186;DHT22;1604;53.700;10.252;2022-12-18T10:28:57;-4.40;99.90
3186;DHT22;1604;53.700;10.252;2022-12-18T10:31:59;-4.40;99.90
3186;DHT22;1604;53.700;10.252;2022-12-18T10:35:00;-4.40;99.90
3186;DHT22;1604;53.700;10.252;2022-12-18T10:38:06;-4.30;99.90
3186;DHT22;1604;53.700;10.252;2022-12-18T10:41:24;-4.30;99.90
3186;DHT22;1604;53.700;10.252;2022-12-18T10:44:30;-4.30;99.90
3186;DHT22;1604;53.700;10.252;2022-12-18T10:47:34;-4.20;99.90
3186;DHT22;1604;53.700;10.252;2022-12-18T10:50:37;-4.30;99.90
3186;DHT22;1604;53.700;10.252;2022-12-18T10:53:42;-4.20;99.90
3186;DHT22;1604;53.700;10.252;2022-12-18T10:56:46;-4.20;99.90
3186;DHT22;1604;53.700;10.252;2022-12-18T10:59:56;-4.10;99.90
3186;DHT22;1604;53.700;10.252;2022-12-18T11:03:01;-4.10;99.90
3186;DHT22;1604;53.700;10.252;2022-12-18T11:06:07;-3.90;99.90
3186;DHT22;1604;53.700;10.252;2022-12-18T11:09:20;-3.90;99.90
3186;DHT22;1604;53.700;10.252;2022-12-18T11:12:22;-3.90;99.90
3186;DHT22;1604;53.700;10.252;2022-12-18T11:15:29;-3.90;99.90
3186;DHT22;1604;53.700;10.252;2022-12-18T11:18:33;-3.80;99.90
3186;DHT22;1604;53.700;10.252;2022-12-18T11:21:39;-3.70;99.90
3186;DHT22;1604;53.700;10.252;2022-12-18T11:24:49;-3.60;99.90
3186;DHT22;1604;53.700;10.252;2022-12-18T11:27:56;-3.50;99.90
3186;DHT22;1604;53.700;10.252;2022-12-18T11:31:21;-3.40;99.90
3186;DHT22;1604;53.700;10.252;2022-12-18T11:34:29;-3.30;99.90
3186;DHT22;1604;53.700;10.252;2022-12-18T11:37:32;-3.20;99.90
3186;DHT22;1604;53.700;10.252;2022-12-18T11:40:42;-3.20;99.90
3186;DHT22;1604;53.700;10.252;2022-12-18T11:43:50;-3.20;99.90
3186;DHT22;1604;53.700;10.252;2022-12-18T11:46:56;-3.10;99.90
3186;DHT22;1604;53.700;10.252;2022-12-18T11:50:02;-3.10;99.90
3186;DHT22;1604;53.700;10.252;2022-12-18T11:53:04;-3.10;99.90
3186;DHT22;1604;53.700;10.252;2022-12-18T11:56:29;-3.00;99.90
3186;DHT22;1604;53.700;10.252;2022-12-18T11:59:37;-3.00;99.90
3186;DHT22;1604;53.700;10.252;2022-12-18T12:03:10;-3.00;99.90
3186;DHT22;1604;53.700;10.252;2022-12-18T12:06:20;-3.00;99.90
3186;DHT22;1604;53.700;10.252;2022-12-18T12:09:28;-2.90;99.90
3186;DHT22;1604;53.700;10.252;2022-12-18T12:12:43;-2.90;99.90
3186;DHT22;1604;53.700;10.252;2022-12-18T12:15:58;-2.90;99.90
3186;DHT22;1604;53.700;10.252;2022-12-18T12:19:20;-2.90;99.90
3186;DHT22;1604;53.700;10.252;2022-12-18T12:22:33;-2.90;99.90
3186;DHT22;1604;53.700;10.252;2022-12-18T12:25:44;-2.90;99.90
3186;DHT22;1604;53.700;10.252;2022-12-18T12:29:00;-3.00;99.90
3186;DHT22;1604;53.700;10.252;2022-12-18T12:32:19;-3.00;99.90
3186;DHT22;1604;53.700;10.252;2022-12-18T12:35:32;-3.00;99.90
3186;DHT22;1604;53.700;10.252;2022-12-18T12:38:42;-3.00;99.90
3186;DHT22;1604;53.700;10.252;2022-12-18T12:41:46;-3.00;99.90
3186;DHT22;1604;53.700;10.252;2022-12-18T12:45:18;-3.00;99.90
3186;DHT22;1604;53.700;10.252;2022-12-18T12:48:32;-3.00;99.90
3186;DHT22;1604;53.700;10.252;2022-12-18T12:51:36;-3.00;99.90
3186;DHT22;1604;53.700;10.252;2022-12-18T12:54:39;-2.90;99.90
3186;DHT22;1604;53.700;10.252;2022-12-18T12:57:45;-3.00;99.90
3186;DHT22;1604;53.700;10.252;2022-12-18T13:00:55;-3.00;99.90
3186;DHT22;1604;53.700;10.252;2022-12-18T13:04:10;-3.00;99.90
3186;DHT22;1604;53.700;10.252;2022-12-18T13:07:24;-3.00;99.90
3186;DHT22;1604;53.700;10.252;2022-12-18T13:10:34;-3.00;99.90
3186;DHT22;1604;53.700;10.252;2022-12-18T13:13:48;-3.00;99.90
3186;DHT22;1604;53.700;10.252;2022-12-18T13:16:51;-3.00;99.90
3186;DHT22;1604;53.700;10.252;2022-12-18T13:20:08;-3.10;99.90
3186;DHT22;1604;53.700;10.252;2022-12-18T13:23:28;-3.10;99.90
3186;DHT22;1604;53.700;10.252;2022-12-18T13:26:31;-3.10;99.90
3186;DHT22;1604;53.700;10.252;2022-12-18T13:29:44;-3.20;99.90
3186;DHT22;1604;53.700;10.252;2022-12-18T13:36:32;-3.30;99.90
3186;DHT22;1604;53.700;10.252;2022-12-18T13:39:37;-3.40;99.90
3186;DHT22;1604;53.700;10.252;2022-12-18T13:42:42;-3.40;99.90
3186;DHT22;1604;53.700;10.252;2022-12-18T13:46:16;-3.40;99.90
3186;DHT22;1604;53.700;10.252;2022-12-18T13:49:24;-3.50;99.90
3186;DHT22;1604;53.700;10.252;2022-12-18T13:52:35;-3.50;99.90
3186;DHT22;1604;53.700;10.252;2022-12-18T13:55:44;-3.60;99.90
3186;DHT22;1604;53.700;10.252;2022-12-18T13:58:49;-3.60;99.90
3186;DHT22;1604;53.700;10.252;2022-12-18T14:02:12;-3.60;99.90
3186;DHT22;1604;53.700;10.252;2022-12-18T14:05:26;-3.70;99.90
3186;DHT22;1604;53.700;10.252;2022-12-18T14:08:33;-3.70;99.90
3186;DHT22;1604;53.700;10.252;2022-12-18T14:11:37;-3.80;99.90
3186;DHT22;1604;53.700;10.252;2022-12-18T14:14:48;-3.90;99.90
3186;DHT22;1604;53.700;10.252;2022-12-18T14:17:52;-3.90;99.90
3186;DHT22;1604;53.700;10.252;2022-12-18T14:20:58;-4.00;99.90
3186;DHT22;1604;53.700;10.252;2022-12-18T14:24:11;-4.00;99.90
3186;DHT22;1604;53.700;10.252;2022-12-18T14:27:22;-4.00;99.90
3186;DHT22;1604;53.700;10.252;2022-12-18T14:30:29;-4.10;99.90
3186;DHT22;1604;53.700;10.252;2022-12-18T14:33:32;-4.10;99.90
3186;DHT22;1604;53.700;10.252;2022-12-18T14:36:36;-4.10;99.90
3186;DHT22;1604;53.700;10.252;2022-12-18T14:39:40;-4.10;99.90
3186;DHT22;1604;53.700;10.252;2022-12-18T14:42:45;-4.10;99.90
3186;DHT22;1604;53.700;10.252;2022-12-18T14:45:48;-4.20;99.90
3186;DHT22;1604;53.700;10.252;2022-12-18T14:48:50;-4.10;99.90
3186;DHT22;1604;53.700;10.252;2022-12-18T14:51:54;-4.20;99.90
3186;DHT22;1604;53.700;10.252;2022-12-18T14:54:57;-4.20;99.90
3186;DHT22;1604;53.700;10.252;2022-12-18T14:57:59;-4.20;99.90
3186;DHT22;1604;53.700;10.252;2022-12-18T15:01:00;-4.20;99.90
3186;DHT22;1604;53.700;10.252;2022-12-18T15:04:04;-4.30;99.90
3186;DHT22;1604;53.700;10.252;2022-12-18T15:07:13;-4.30;99.90
3186;DHT22;1604;53.700;10.252;2022-12-18T15:10:17;-4.30;99.90
3186;DHT22;1604;53.700;10.252;2022-12-18T15:13:22;-4.30;99.90
3186;DHT22;1604;53.700;10.252;2022-12-18T15:16:25;-4.30;99.90
3186;DHT22;1604;53.700;10.252;2022-12-18T15:28:58;-4.40;99.90
3186;DHT22;1604;53.700;10.252;2022-12-18T15:32:03;-4.40;99.90
3186;DHT22;1604;53.700;10.252;2022-12-18T15:35:13;-4.50;99.90
3186;DHT22;1604;53.700;10.252;2022-12-18T15:38:16;-4.50;99.90
3186;DHT22;1604;53.700;10.252;2022-12-18T15:41:20;-4.50;99.90
3186;DHT22;1604;53.700;10.252;2022-12-18T15:44:24;-4.60;99.90
3186;DHT22;1604;53.700;10.252;2022-12-18T15:47:27;-4.60;99.90
3186;DHT22;1604;53.700;10.252;2022-12-18T15:50:29;-4.60;99.90
3186;DHT22;1604;53.700;10.252;2022-12-18T15:53:33;-4.60;99.90
3186;DHT22;1604;53.700;10.252;2022-12-18T15:56:35;-4.60;99.90
3186;DHT22;1604;53.700;10.252;2022-12-18T15:59:56;-4.70;99.90
3186;DHT22;1604;53.700;10.252;2022-12-18T16:02:58;-4.60;99.90
3186;DHT22;1604;53.700;10.252;2022-12-18T16:06:00;-4.60;99.90
3186;DHT22;1604;53.700;10.252;2022-12-18T16:09:03;-4.50;99.90
3186;DHT22;1604;53.700;10.252;2022-12-18T16:12:05;-4.60;99.90
3186;DHT22;1604;53.700;10.252;2022-12-18T16:15:10;-4.60;99.90
3186;DHT22;1604;53.700;10.252;2022-12-18T16:18:14;-4.60;99.90
3186;DHT22;1604;53.700;10.252;2022-12-18T16:21:16;-4.60;99.90
3186;DHT22;1604;53.700;10.252;2022-12-18T16:24:19;-4.50;99.90
3186;DHT22;1604;53.700;10.252;2022-12-18T16:27:22;-4.50;99.90
3186;DHT22;1604;53.700;10.252;2022-12-18T16:30:28;-4.50;99.90
3186;DHT22;1604;53.700;10.252;2022-12-18T16:33:31;-4.50;99.90
3186;DHT22;1604;53.700;10.252;2022-12-18T16:36:33;-4.50;99.90
3186;DHT22;1604;53.700;10.252;2022-12-18T16:39:35;-4.50;99.90
3186;DHT22;1604;53.700;10.252;2022-12-18T16:42:38;-4.50;99.90
3186;DHT22;1604;53.700;10.252;2022-12-18T16:45:42;-4.50;99.90
3186;DHT22;1604;53.700;10.252;2022-12-18T16:48:44;-4.50;99.90
3186;DHT22;1604;53.700;10.252;2022-12-18T16:51:46;-4.50;99.90
3186;DHT22;1604;53.700;10.252;2022-12-18T16:54:48;-4.50;99.90
3186;DHT22;1604;53.700;10.252;2022-12-18T16:57:50;-4.50;99.90
3186;DHT22;1604;53.700;10.252;2022-12-18T17:00:53;-4.50;99.90
3186;DHT22;1604;53.700;10.252;2022-12-18T17:03:56;-4.50;99.90
3186;DHT22;1604;53.700;10.252;2022-12-18T17:06:59;-4.50;99.90
3186;DHT22;1604;53.700;10.252;2022-12-18T17:10:00;-4.50;99.90
3186;DHT22;1604;53.700;10.252;2022-12-18T17:13:02;-4.40;99.90
3186;DHT22;1604;53.700;10.252;2022-12-18T17:16:06;-4.40;99.90
3186;DHT22;1604;53.700;10.252;2022-12-18T17:19:09;-4.40;99.90
3186;DHT22;1604;53.700;10.252;2022-12-18T17:22:11;-4.40;99.90
3186;DHT22;1604;53.700;10.252;2022-12-18T17:25:13;-4.40;99.90
3186;DHT22;1604;53.700;10.252;2022-12-18T17:28:15;-4.30;99.90
3186;DHT22;1604;53.700;10.252;2022-12-18T17:31:20;-4.30;99.90
3186;DHT22;1604;53.700;10.252;2022-12-18T17:34:22;-4.30;99.90
3186;DHT22;1604;53.700;10.252;2022-12-18T17:37:24;-4.20;99.90
3186;DHT22;1604;53.700;10.252;2022-12-18T17:40:26;-4.20;99.90
3186;DHT22;1604;53.700;10.252;2022-12-18T17:43:28;-4.20;99.90
3186;DHT22;1604;53.700;10.252;2022-12-18T17:46:33;-4.20;99.90
3186;DHT22;1604;53.700;10.252;2022-12-18T17:49:35;-4.20;99.90
3186;DHT22;1604;53.700;10.252;2022-12-18T17:52:37;-4.20;99.90
3186;DHT22;1604;53.700;10.252;2022-12-18T17:55:38;-4.10;99.90
3186;DHT22;1604;53.700;10.252;2022-12-18T17:58:41;-4.10;99.90
3186;DHT22;1604;53.700;10.252;2022-12-18T18:01:45;-4.00;99.90
3186;DHT22;1604;53.700;10.252;2022-12-18T18:04:47;-4.00;99.90
3186;DHT22;1604;53.700;10.252;2022-12-18T18:07:48;-4.00;99.90
3186;DHT22;1604;53.700;10.252;2022-12-18T18:10:51;-4.00;99.90
3186;DHT22;1604;53.700;10.252;2022-12-18T18:13:53;-3.90;99.90
3186;DHT22;1604;53.700;10.252;2022-12-18T18:17:05;-3.90;99.90
3186;DHT22;1604;53.700;10.252;2022-12-18T18:20:08;-3.90;99.90
3186;DHT22;1604;53.700;10.252;2022-12-18T18:23:10;-3.90;99.90
3186;DHT22;1604;53.700;10.252;2022-12-18T18:26:12;-3.90;99.90
3186;DHT22;1604;53.700;10.252;2022-12-18T18:29:15;-3.90;99.90
3186;DHT22;1604;53.700;10.252;2022-12-18T18:32:19;-3.90;99.90
3186;DHT22;1604;53.700;10.252;2022-12-18T18:35:21;-3.80;99.90
3186;DHT22;1604;53.700;10.252;2022-12-18T18:38:23;-3.90;99.90
3186;DHT22;1604;53.700;10.252;2022-12-18T18:41:25;-3.80;99.90
3186;DHT22;1604;53.700;10.252;2022-12-18T18:44:29;-3.80;99.90
3186;DHT22;1604;53.700;10.252;2022-12-18T18:47:32;-3.80;99.90
3186;DHT22;1604;53.700;10.252;2022-12-18T18:50:34;-3.70;99.90
3186;DHT22;1604;53.700;10.252;2022-12-18T18:53:37;-3.70;99.90
3186;DHT22;1604;53.700;10.252;2022-12-18T18:56:39;-3.70;99.90
3186;DHT22;1604;53.700;10.252;2022-12-18T18:59:41;-3.70;99.90
3186;DHT22;1604;53.700;10.252;2022-12-18T19:02:44;-3.70;99.90
3186;DHT22;1604;53.700;10.252;2022-12-18T19:05:49;-3.70;99.90
3186;DHT22;1604;53.700;10.252;2022-12-18T19:08:52;-3.60;99.90
3186;DHT22;1604;53.700;10.252;2022-12-18T19:11:54;-3.60;99.90
3186;DHT22;1604;53.700;10.252;2022-12-18T19:15:14;-3.70;99.90
3186;DHT22;1604;53.700;10.252;2022-12-18T19:18:17;-3.70;99.90
3186;DHT22;1604;53.700;10.252;2022-12-18T19:21:19;-3.60;99.90
3186;DHT22;1604;53.700;10.252;2022-12-18T19:24:21;-3.60;99.90
3186;DHT22;1604;53.700;10.252;2022-12-18T19:27:23;-3.60;99.90
3186;DHT22;1604;53.700;10.252;2022-12-18T19:30:25;-3.60;99.90
3186;DHT22;1604;53.700;10.252;2022-12-18T19:33:30;-3.60;99.90
3186;DHT22;1604;53.700;10.252;2022-12-18T19:36:34;-3.60;99.90
3186;DHT22;1604;53.700;10.252;2022-12-18T19:39:36;-3.60;99.90
3186;DHT22;1604;53.700;10.252;2022-12-18T19:42:38;-3.60;99.90
3186;DHT22;1604;53.700;10.252;2022-12-18T19:45:40;-3.60;99.90
3186;DHT22;1604;53.700;10.252;2022-12-18T19:48:45;-3.50;99.90
3186;DHT22;1604;53.700;10.252;2022-12-18T19:51:47;-3.50;99.90
3186;DHT22;1604;53.700;10.252;2022-12-18T19:54:49;-3.50;99.90
3186;DHT22;1604;53.700;10.252;2022-12-18T19:57:51;-3.50;99.90
3186;DHT22;1604;53.700;10.252;2022-12-18T20:00:53;-3.50;99.90